sensor_id;sensor_type;location;lat;lon;timestamp;P1;durP1;ratioP1;P2;durP2;ratioP2
45358;SDS011;31096;49.292;8.710;2023-05-16T00:04:29;18.20;;;12.47;;
45358;SDS011;31096;49.292;8.710;2023-05-16T00:09:20;22.10;;;14.07;;
45358;SDS011;31096;49.292;8.710;2023-05-16T00:14:10;18.87;;;12.80;;
45358;SDS011;31096;49.292;8.710;2023-05-16T00:19:01;23.67;;;14.63;;
45358;SDS011;31096;49.292;8.710;2023-05-16T00:23:53;20.33;;;12.90;;
45358;SDS011;31096;49.292;8.710;2023-05-16T00:28:44;22.48;;;13.82;;
45358;SDS011;31096;49.292;8.710;2023-05-16T00:33:38;21.63;;;14.00;;
45358;SDS011;31096;49.292;8.710;2023-05-16T00:38:35;23.42;;;14.95;;
45358;SDS011;31096;49.292;8.710;2023-05-16T00:43:26;21.45;;;12.77;;
45358;SDS011;31096;49.292;8.710;2023-05-16T00:48:17;25.60;;;15.23;;
45358;SDS011;31096;49.292;8.710;2023-05-16T00:53:08;27.60;;;16.02;;
45358;SDS011;31096;49.292;8.710;2023-05-16T00:57:59;22.40;;;14.17;;
45358;SDS011;31096;49.292;8.710;2023-05-16T01:02:50;28.40;;;15.55;;
45358;SDS011;31096;49.292;8.710;2023-05-16T01:07:42;28.20;;;16.48;;
45358;SDS011;31096;49.292;8.710;2023-05-16T01:12:40;32.20;;;17.70;;
45358;SDS011;31096;49.292;8.710;2023-05-16T01:28:17;39.65;;;21.33;;
45358;SDS011;31096;49.292;8.710;2023-05-16T01:33:08;36.03;;;18.67;;
45358;SDS011;31096;49.292;8.710;2023-05-16T01:43:12;31.20;;;17.88;;
45358;SDS011;31096;49.292;8.710;2023-05-16T01:48:07;37.07;;;20.87;;
45358;SDS011;31096;49.292;8.710;2023-05-16T01:53:05;36.40;;;19.05;;
45358;SDS011;31096;49.292;8.710;2023-05-16T01:57:58;37.42;;;20.92;;
45358;SDS011;31096;49.292;8.710;2023-05-16T02:02:49;38.10;;;20.90;;
45358;SDS011;31096;49.292;8.710;2023-05-16T02:07:40;37.30;;;19.57;;
45358;SDS011;31096;49.292;8.710;2023-05-16T02:12:31;39.60;;;21.77;;
45358;SDS011;31096;49.292;8.710;2023-05-16T02:17:25;37.60;;;20.50;;
45358;SDS011;31096;49.292;8.710;2023-05-16T02:22:59;40.50;;;20.80;;
45358;SDS011;31096;49.292;8.710;2023-05-16T02:27:50;43.83;;;22.05;;
45358;SDS011;31096;49.292;8.710;2023-05-16T02:32:40;36.03;;;20.07;;
45358;SDS011;31096;49.292;8.710;2023-05-16T02:37:33;39.10;;;21.23;;
45358;SDS011;31096;49.292;8.710;2023-05-16T02:42:25;37.30;;;20.90;;
45358;SDS011;31096;49.292;8.710;2023-05-16T02:47:18;37.45;;;20.85;;
45358;SDS011;31096;49.292;8.710;2023-05-16T02:52:09;42.93;;;21.63;;
45358;SDS011;31096;49.292;8.710;2023-05-16T02:57:00;45.00;;;24.55;;
45358;SDS011;31096;49.292;8.710;2023-05-16T03:01:51;37.17;;;20.60;;
45358;SDS011;31096;49.292;8.710;2023-05-16T03:06:42;36.57;;;19.67;;
45358;SDS011;31096;49.292;8.710;2023-05-16T03:11:33;31.43;;;17.97;;
45358;SDS011;31096;49.292;8.710;2023-05-16T03:16:23;37.80;;;20.77;;
45358;SDS011;31096;49.292;8.710;2023-05-16T03:21:14;36.23;;;19.63;;
45358;SDS011;31096;49.292;8.710;2023-05-16T03:26:05;32.53;;;18.47;;
45358;SDS011;31096;49.292;8.710;2023-05-16T03:30:56;33.00;;;18.50;;
45358;SDS011;31096;49.292;8.710;2023-05-16T03:35:47;39.53;;;19.38;;
45358;SDS011;31096;49.292;8.710;2023-05-16T03:40:38;34.43;;;18.70;;
45358;SDS011;31096;49.292;8.710;2023-05-16T03:45:29;28.60;;;16.67;;
45358;SDS011;31096;49.292;8.710;2023-05-16T03:50:20;27.45;;;16.50;;
45358;SDS011;31096;49.292;8.710;2023-05-16T03:55:11;27.20;;;16.23;;
45358;SDS011;31096;49.292;8.710;2023-05-16T04:00:04;27.00;;;13.55;;
45358;SDS011;31096;49.292;8.710;2023-05-16T04:04:59;26.77;;;14.90;;
45358;SDS011;31096;49.292;8.710;2023-05-16T04:09:50;31.17;;;14.60;;
45358;SDS011;31096;49.292;8.710;2023-05-16T04:14:41;27.13;;;14.70;;
45358;SDS011;31096;49.292;8.710;2023-05-16T04:19:32;26.63;;;14.13;;
45358;SDS011;31096;49.292;8.710;2023-05-16T04:24:22;28.27;;;15.27;;
45358;SDS011;31096;49.292;8.710;2023-05-16T04:29:15;25.05;;;13.63;;
45358;SDS011;31096;49.292;8.710;2023-05-16T04:34:06;26.63;;;14.03;;
45358;SDS011;31096;49.292;8.710;2023-05-16T04:38:57;24.80;;;13.13;;
45358;SDS011;31096;49.292;8.710;2023-05-16T04:43:47;25.77;;;12.87;;
45358;SDS011;31096;49.292;8.710;2023-05-16T04:48:38;25.85;;;14.48;;
45358;SDS011;31096;49.292;8.710;2023-05-16T04:53:29;33.03;;;15.50;;
45358;SDS011;31096;49.292;8.710;2023-05-16T04:58:20;25.57;;;13.43;;
45358;SDS011;31096;49.292;8.710;2023-05-16T05:03:13;24.10;;;11.95;;
45358;SDS011;31096;49.292;8.710;2023-05-16T05:08:03;23.73;;;12.60;;
45358;SDS011;31096;49.292;8.710;2023-05-16T05:12:56;25.67;;;13.25;;
45358;SDS011;31096;49.292;8.710;2023-05-16T05:17:46;30.38;;;15.50;;
45358;SDS011;31096;49.292;8.710;2023-05-16T05:22:37;23.20;;;13.23;;
45358;SDS011;31096;49.292;8.710;2023-05-16T05:27:28;28.40;;;14.47;;
45358;SDS011;31096;49.292;8.710;2023-05-16T05:32:18;24.10;;;12.70;;
45358;SDS011;31096;49.292;8.710;2023-05-16T05:37:09;25.83;;;14.10;;
45358;SDS011;31096;49.292;8.710;2023-05-16T05:42:00;22.23;;;12.80;;
45358;SDS011;31096;49.292;8.710;2023-05-16T05:46:54;22.57;;;12.63;;
45358;SDS011;31096;49.292;8.710;2023-05-16T05:51:46;24.90;;;13.15;;
45358;SDS011;31096;49.292;8.710;2023-05-16T05:56:37;32.17;;;14.83;;
45358;SDS011;31096;49.292;8.710;2023-05-16T06:01:27;24.08;;;12.98;;
45358;SDS011;31096;49.292;8.710;2023-05-16T06:06:18;23.70;;;12.07;;
45358;SDS011;31096;49.292;8.710;2023-05-16T06:11:09;26.08;;;13.15;;
45358;SDS011;31096;49.292;8.710;2023-05-16T06:16:00;26.53;;;14.07;;
45358;SDS011;31096;49.292;8.710;2023-05-16T06:20:51;31.17;;;13.57;;
45358;SDS011;31096;49.292;8.710;2023-05-16T06:25:42;25.52;;;11.38;;
45358;SDS011;31096;49.292;8.710;2023-05-16T06:30:33;23.40;;;11.00;;
45358;SDS011;31096;49.292;8.710;2023-05-16T06:35:24;21.00;;;11.48;;
45358;SDS011;31096;49.292;8.710;2023-05-16T06:40:14;25.80;;;11.97;;
45358;SDS011;31096;49.292;8.710;2023-05-16T06:45:06;20.35;;;10.23;;
45358;SDS011;31096;49.292;8.710;2023-05-16T06:49:57;19.00;;;10.57;;
45358;SDS011;31096;49.292;8.710;2023-05-16T06:54:48;17.93;;;9.47;;
45358;SDS011;31096;49.292;8.710;2023-05-16T06:59:39;22.50;;;10.67;;
45358;SDS011;31096;49.292;8.710;2023-05-16T07:04:29;14.95;;;9.32;;
45358;SDS011;31096;49.292;8.710;2023-05-16T07:09:21;16.40;;;9.23;;
45358;SDS011;31096;49.292;8.710;2023-05-16T07:14:12;17.17;;;8.32;;
45358;SDS011;31096;49.292;8.710;2023-05-16T07:19:03;17.87;;;8.10;;
45358;SDS011;31096;49.292;8.710;2023-05-16T07:23:54;13.27;;;8.27;;
45358;SDS011;31096;49.292;8.710;2023-05-16T07:28:45;11.93;;;6.23;;
45358;SDS011;31096;49.292;8.710;2023-05-16T07:33:35;12.45;;;7.57;;
45358;SDS011;31096;49.292;8.710;2023-05-16T07:38:26;12.87;;;6.50;;
45358;SDS011;31096;49.292;8.710;2023-05-16T07:43:17;12.90;;;7.00;;
45358;SDS011;31096;49.292;8.710;2023-05-16T07:48:08;10.43;;;6.07;;
45358;SDS011;31096;49.292;8.710;2023-05-16T07:52:58;11.33;;;6.30;;
45358;SDS011;31096;49.292;8.710;2023-05-16T07:57:50;8.23;;;4.72;;
45358;SDS011;31096;49.292;8.710;2023-05-16T08:02:41;9.30;;;4.60;;
45358;SDS011;31096;49.292;8.710;2023-05-16T08:07:32;7.68;;;4.47;;
45358;SDS011;31096;49.292;8.710;2023-05-16T08:12:23;9.70;;;4.83;;
45358;SDS011;31096;49.292;8.710;2023-05-16T08:17:14;10.05;;;4.15;;
45358;SDS011;31096;49.292;8.710;2023-05-16T08:22:06;7.67;;;4.10;;
45358;SDS011;31096;49.292;8.710;2023-05-16T08:26:58;5.23;;;3.00;;
45358;SDS011;31096;49.292;8.710;2023-05-16T08:31:49;6.93;;;4.00;;
45358;SDS011;31096;49.292;8.710;2023-05-16T08:36:40;8.07;;;3.57;;
45358;SDS011;31096;49.292;8.710;2023-05-16T08:41:31;5.93;;;3.45;;
45358;SDS011;31096;49.292;8.710;2023-05-16T08:46:22;6.33;;;2.90;;
45358;SDS011;31096;49.292;8.710;2023-05-16T08:51:14;4.95;;;2.50;;
45358;SDS011;31096;49.292;8.710;2023-05-16T08:56:06;4.20;;;2.47;;
45358;SDS011;31096;49.292;8.710;2023-05-16T09:00:58;4.20;;;2.30;;
45358;SDS011;31096;49.292;8.710;2023-05-16T09:05:52;6.30;;;2.50;;
45358;SDS011;31096;49.292;8.710;2023-05-16T09:10:43;4.68;;;2.33;;
45358;SDS011;31096;49.292;8.710;2023-05-16T09:15:33;6.87;;;2.23;;
45358;SDS011;31096;49.292;8.710;2023-05-16T09:20:24;4.10;;;2.60;;
45358;SDS011;31096;49.292;8.710;2023-05-16T09:25:15;5.25;;;2.47;;
45358;SDS011;31096;49.292;8.710;2023-05-16T09:30:07;4.85;;;2.05;;
45358;SDS011;31096;49.292;8.710;2023-05-16T09:34:58;3.67;;;2.20;;
45358;SDS011;31096;49.292;8.710;2023-05-16T09:39:51;4.53;;;2.40;;
45358;SDS011;31096;49.292;8.710;2023-05-16T09:44:50;4.13;;;2.00;;
45358;SDS011;31096;49.292;8.710;2023-05-16T09:49:44;3.77;;;2.07;;
45358;SDS011;31096;49.292;8.710;2023-05-16T09:54:35;4.32;;;2.28;;
45358;SDS011;31096;49.292;8.710;2023-05-16T09:59:30;3.92;;;2.03;;
45358;SDS011;31096;49.292;8.710;2023-05-16T10:04:30;3.40;;;1.73;;
45358;SDS011;31096;49.292;8.710;2023-05-16T10:09:22;4.72;;;2.10;;
45358;SDS011;31096;49.292;8.710;2023-05-16T10:14:14;5.30;;;2.00;;
45358;SDS011;31096;49.292;8.710;2023-05-16T10:19:08;3.77;;;2.10;;
45358;SDS011;31096;49.292;8.710;2023-05-16T10:24:00;4.28;;;2.00;;
45358;SDS011;31096;49.292;8.710;2023-05-16T10:28:54;3.40;;;2.10;;
45358;SDS011;31096;49.292;8.710;2023-05-16T10:33:46;7.37;;;2.00;;
45358;SDS011;31096;49.292;8.710;2023-05-16T10:38:37;4.37;;;2.00;;
45358;SDS011;31096;49.292;8.710;2023-05-16T10:43:28;5.10;;;2.35;;
45358;SDS011;31096;49.292;8.710;2023-05-16T10:48:26;3.67;;;1.95;;
45358;SDS011;31096;49.292;8.710;2023-05-16T10:53:32;4.50;;;1.90;;
45358;SDS011;31096;49.292;8.710;2023-05-16T11:03:27;4.75;;;2.00;;
45358;SDS011;31096;49.292;8.710;2023-05-16T11:08:18;5.60;;;1.80;;
45358;SDS011;31096;49.292;8.710;2023-05-16T11:13:09;5.13;;;2.22;;
45358;SDS011;31096;49.292;8.710;2023-05-16T11:18:04;5.25;;;2.05;;
45358;SDS011;31096;49.292;8.710;2023-05-16T11:28:06;4.38;;;2.30;;
45358;SDS011;31096;49.292;8.710;2023-05-16T11:32:58;3.50;;;1.67;;
45358;SDS011;31096;49.292;8.710;2023-05-16T11:37:49;5.47;;;2.33;;
45358;SDS011;31096;49.292;8.710;2023-05-16T11:42:42;5.72;;;2.10;;
45358;SDS011;31096;49.292;8.710;2023-05-16T11:47:35;6.32;;;2.30;;
45358;SDS011;31096;49.292;8.710;2023-05-16T11:52:27;5.17;;;2.30;;
45358;SDS011;31096;49.292;8.710;2023-05-16T11:57:19;4.73;;;2.53;;
45358;SDS011;31096;49.292;8.710;2023-05-16T12:02:10;6.22;;;2.20;;
45358;SDS011;31096;49.292;8.710;2023-05-16T12:07:01;4.80;;;2.40;;
45358;SDS011;31096;49.292;8.710;2023-05-16T12:11:52;5.25;;;2.35;;
45358;SDS011;31096;49.292;8.710;2023-05-16T12:16:43;5.28;;;2.25;;
45358;SDS011;31096;49.292;8.710;2023-05-16T12:21:36;5.63;;;2.40;;
45358;SDS011;31096;49.292;8.710;2023-05-16T12:26:31;5.32;;;2.90;;
45358;SDS011;31096;49.292;8.710;2023-05-16T12:31:22;4.90;;;2.63;;
45358;SDS011;31096;49.292;8.710;2023-05-16T12:36:13;4.50;;;2.37;;
45358;SDS011;31096;49.292;8.710;2023-05-16T12:41:06;5.32;;;2.80;;
45358;SDS011;31096;49.292;8.710;2023-05-16T12:45:56;5.72;;;3.00;;
45358;SDS011;31096;49.292;8.710;2023-05-16T12:50:47;6.57;;;2.80;;
45358;SDS011;31096;49.292;8.710;2023-05-16T12:55:39;7.78;;;3.58;;
45358;SDS011;31096;49.292;8.710;2023-05-16T13:00:32;9.27;;;3.10;;
45358;SDS011;31096;49.292;8.710;2023-05-16T13:05:23;5.50;;;2.80;;
45358;SDS011;31096;49.292;8.710;2023-05-16T13:10:13;6.10;;;2.60;;
45358;SDS011;31096;49.292;8.710;2023-05-16T13:15:08;5.78;;;2.75;;
45358;SDS011;31096;49.292;8.710;2023-05-16T13:20:01;5.57;;;2.80;;
45358;SDS011;31096;49.292;8.710;2023-05-16T13:24:57;5.90;;;2.92;;
45358;SDS011;31096;49.292;8.710;2023-05-16T13:29:47;6.03;;;3.20;;
45358;SDS011;31096;49.292;8.710;2023-05-16T13:34:38;5.82;;;2.80;;
45358;SDS011;31096;49.292;8.710;2023-05-16T13:39:29;7.53;;;2.90;;
45358;SDS011;31096;49.292;8.710;2023-05-16T13:44:20;5.60;;;3.00;;
45358;SDS011;31096;49.292;8.710;2023-05-16T13:49:11;8.40;;;3.17;;
45358;SDS011;31096;49.292;8.710;2023-05-16T13:54:02;7.18;;;3.35;;
45358;SDS011;31096;49.292;8.710;2023-05-16T13:58:53;6.80;;;3.10;;
45358;SDS011;31096;49.292;8.710;2023-05-16T14:03:44;7.35;;;3.28;;
45358;SDS011;31096;49.292;8.710;2023-05-16T14:08:34;5.67;;;2.67;;
45358;SDS011;31096;49.292;8.710;2023-05-16T14:13:25;7.53;;;3.05;;
45358;SDS011;31096;49.292;8.710;2023-05-16T14:18:16;8.03;;;3.20;;
45358;SDS011;31096;49.292;8.710;2023-05-16T14:23:07;8.53;;;3.20;;
45358;SDS011;31096;49.292;8.710;2023-05-16T14:27:57;5.50;;;2.80;;
45358;SDS011;31096;49.292;8.710;2023-05-16T14:32:48;7.20;;;2.70;;
45358;SDS011;31096;49.292;8.710;2023-05-16T14:37:39;7.18;;;3.22;;
45358;SDS011;31096;49.292;8.710;2023-05-16T14:42:30;5.23;;;2.27;;
45358;SDS011;31096;49.292;8.710;2023-05-16T14:47:20;5.22;;;2.50;;
45358;SDS011;31096;49.292;8.710;2023-05-16T14:52:13;6.20;;;2.70;;
45358;SDS011;31096;49.292;8.710;2023-05-16T14:57:04;5.50;;;2.63;;
45358;SDS011;31096;49.292;8.710;2023-05-16T15:01:55;5.90;;;3.08;;
45358;SDS011;31096;49.292;8.710;2023-05-16T15:06:46;5.80;;;2.00;;
45358;SDS011;31096;49.292;8.710;2023-05-16T15:11:37;6.57;;;2.10;;
45358;SDS011;31096;49.292;8.710;2023-05-16T15:16:28;6.35;;;2.55;;
45358;SDS011;31096;49.292;8.710;2023-05-16T15:21:20;4.33;;;2.23;;
45358;SDS011;31096;49.292;8.710;2023-05-16T15:26:11;6.63;;;2.60;;
45358;SDS011;31096;49.292;8.710;2023-05-16T15:31:02;5.43;;;2.10;;
45358;SDS011;31096;49.292;8.710;2023-05-16T15:35:56;7.97;;;2.53;;
45358;SDS011;31096;49.292;8.710;2023-05-16T15:40:47;6.28;;;2.72;;
45358;SDS011;31096;49.292;8.710;2023-05-16T15:45:38;5.30;;;2.67;;
45358;SDS011;31096;49.292;8.710;2023-05-16T15:50:28;10.55;;;2.60;;
45358;SDS011;31096;49.292;8.710;2023-05-16T15:55:19;4.33;;;2.00;;
45358;SDS011;31096;49.292;8.710;2023-05-16T16:00:11;4.63;;;2.15;;
45358;SDS011;31096;49.292;8.710;2023-05-16T16:05:02;4.50;;;2.10;;
45358;SDS011;31096;49.292;8.710;2023-05-16T16:09:53;4.60;;;2.07;;
45358;SDS011;31096;49.292;8.710;2023-05-16T16:14:44;7.13;;;2.20;;
45358;SDS011;31096;49.292;8.710;2023-05-16T16:19:34;5.33;;;2.27;;
45358;SDS011;31096;49.292;8.710;2023-05-16T16:24:25;5.30;;;1.80;;
45358;SDS011;31096;49.292;8.710;2023-05-16T16:29:16;5.68;;;2.20;;
45358;SDS011;31096;49.292;8.710;2023-05-16T16:34:07;4.97;;;1.90;;
45358;SDS011;31096;49.292;8.710;2023-05-16T16:38:58;5.13;;;1.95;;
45358;SDS011;31096;49.292;8.710;2023-05-16T16:43:49;5.93;;;1.73;;
45358;SDS011;31096;49.292;8.710;2023-05-16T16:48:39;4.93;;;2.03;;
45358;SDS011;31096;49.292;8.710;2023-05-16T16:53:30;4.67;;;1.93;;
45358;SDS011;31096;49.292;8.710;2023-05-16T16:58:21;6.20;;;2.20;;
45358;SDS011;31096;49.292;8.710;2023-05-16T17:03:12;4.80;;;2.10;;
45358;SDS011;31096;49.292;8.710;2023-05-16T17:08:02;4.43;;;1.83;;
45358;SDS011;31096;49.292;8.710;2023-05-16T17:12:53;6.50;;;1.83;;
45358;SDS011;31096;49.292;8.710;2023-05-16T17:17:44;6.13;;;2.58;;
45358;SDS011;31096;49.292;8.710;2023-05-16T17:22:38;5.23;;;2.00;;
45358;SDS011;31096;49.292;8.710;2023-05-16T17:27:29;7.27;;;2.13;;
45358;SDS011;31096;49.292;8.710;2023-05-16T17:32:21;5.40;;;2.10;;
45358;SDS011;31096;49.292;8.710;2023-05-16T17:37:11;4.80;;;1.80;;
45358;SDS011;31096;49.292;8.710;2023-05-16T17:42:02;4.65;;;1.80;;
45358;SDS011;31096;49.292;8.710;2023-05-16T17:46:54;4.57;;;1.97;;
45358;SDS011;31096;49.292;8.710;2023-05-16T17:51:52;5.22;;;1.98;;
45358;SDS011;31096;49.292;8.710;2023-05-16T17:56:45;5.85;;;2.35;;
45358;SDS011;31096;49.292;8.710;2023-05-16T18:01:38;4.30;;;2.10;;
45358;SDS011;31096;49.292;8.710;2023-05-16T18:06:29;4.60;;;2.20;;
45358;SDS011;31096;49.292;8.710;2023-05-16T18:11:20;6.13;;;2.30;;
45358;SDS011;31096;49.292;8.710;2023-05-16T18:16:11;4.63;;;1.67;;
45358;SDS011;31096;49.292;8.710;2023-05-16T18:21:02;5.20;;;1.88;;
45358;SDS011;31096;49.292;8.710;2023-05-16T18:25:54;5.07;;;1.70;;
45358;SDS011;31096;49.292;8.710;2023-05-16T18:30:45;5.77;;;2.10;;
45358;SDS011;31096;49.292;8.710;2023-05-16T18:35:36;5.23;;;2.50;;
45358;SDS011;31096;49.292;8.710;2023-05-16T18:40:26;3.47;;;2.00;;
45358;SDS011;31096;49.292;8.710;2023-05-16T18:45:17;4.10;;;1.40;;
45358;SDS011;31096;49.292;8.710;2023-05-16T18:50:08;4.10;;;1.63;;
45358;SDS011;31096;49.292;8.710;2023-05-16T18:54:59;3.90;;;1.73;;
45358;SDS011;31096;49.292;8.710;2023-05-16T18:59:50;6.43;;;2.28;;
45358;SDS011;31096;49.292;8.710;2023-05-16T19:04:41;5.40;;;1.80;;
45358;SDS011;31096;49.292;8.710;2023-05-16T19:09:32;3.97;;;1.75;;
45358;SDS011;31096;49.292;8.710;2023-05-16T19:14:22;3.90;;;1.40;;
45358;SDS011;31096;49.292;8.710;2023-05-16T19:19:15;4.97;;;1.48;;
45358;SDS011;31096;49.292;8.710;2023-05-16T19:24:06;3.63;;;1.67;;
45358;SDS011;31096;49.292;8.710;2023-05-16T19:28:58;3.88;;;1.67;;
45358;SDS011;31096;49.292;8.710;2023-05-16T19:33:49;3.83;;;1.60;;
45358;SDS011;31096;49.292;8.710;2023-05-16T19:38:39;3.60;;;1.70;;
45358;SDS011;31096;49.292;8.710;2023-05-16T19:43:30;4.40;;;1.70;;
45358;SDS011;31096;49.292;8.710;2023-05-16T19:48:22;5.88;;;1.60;;
45358;SDS011;31096;49.292;8.710;2023-05-16T19:53:13;4.80;;;1.73;;
45358;SDS011;31096;49.292;8.710;2023-05-16T19:58:04;4.40;;;1.48;;
45358;SDS011;31096;49.292;8.710;2023-05-16T20:02:55;4.63;;;1.90;;
45358;SDS011;31096;49.292;8.710;2023-05-16T20:07:46;4.27;;;2.00;;
45358;SDS011;31096;49.292;8.710;2023-05-16T20:12:37;4.97;;;1.98;;
45358;SDS011;31096;49.292;8.710;2023-05-16T20:17:28;3.93;;;1.37;;
45358;SDS011;31096;49.292;8.710;2023-05-16T20:22:18;4.43;;;1.77;;
45358;SDS011;31096;49.292;8.710;2023-05-16T20:27:10;3.97;;;1.50;;
45358;SDS011;31096;49.292;8.710;2023-05-16T20:32:00;5.03;;;1.80;;
45358;SDS011;31096;49.292;8.710;2023-05-16T20:36:54;4.33;;;1.70;;
45358;SDS011;31096;49.292;8.710;2023-05-16T20:41:45;4.13;;;1.83;;
45358;SDS011;31096;49.292;8.710;2023-05-16T20:46:35;10.47;;;1.77;;
45358;SDS011;31096;49.292;8.710;2023-05-16T20:51:26;4.90;;;1.70;;
45358;SDS011;31096;49.292;8.710;2023-05-16T20:56:17;4.35;;;1.90;;
45358;SDS011;31096;49.292;8.710;2023-05-16T21:01:08;5.70;;;1.97;;
45358;SDS011;31096;49.292;8.710;2023-05-16T21:05:58;4.70;;;1.83;;
45358;SDS011;31096;49.292;8.710;2023-05-16T21:10:49;3.53;;;1.33;;
45358;SDS011;31096;49.292;8.710;2023-05-16T21:15:40;5.10;;;1.80;;
45358;SDS011;31096;49.292;8.710;2023-05-16T21:20:30;3.85;;;1.73;;
45358;SDS011;31096;49.292;8.710;2023-05-16T21:25:21;5.07;;;1.67;;
45358;SDS011;31096;49.292;8.710;2023-05-16T21:30:12;4.10;;;1.90;;
45358;SDS011;31096;49.292;8.710;2023-05-16T21:35:03;3.75;;;1.50;;
45358;SDS011;31096;49.292;8.710;2023-05-16T21:39:56;3.95;;;1.70;;
45358;SDS011;31096;49.292;8.710;2023-05-16T21:44:47;3.97;;;1.73;;
45358;SDS011;31096;49.292;8.710;2023-05-16T21:49:37;4.20;;;2.00;;
45358;SDS011;31096;49.292;8.710;2023-05-16T21:54:28;4.40;;;1.80;;
45358;SDS011;31096;49.292;8.710;2023-05-16T21:59:21;4.47;;;1.90;;
45358;SDS011;31096;49.292;8.710;2023-05-16T22:04:12;3.93;;;1.90;;
45358;SDS011;31096;49.292;8.710;2023-05-16T22:09:02;7.03;;;2.42;;
45358;SDS011;31096;49.292;8.710;2023-05-16T22:13:53;4.00;;;1.90;;
45358;SDS011;31096;49.292;8.710;2023-05-16T22:18:44;5.93;;;2.00;;
45358;SDS011;31096;49.292;8.710;2023-05-16T22:23:35;4.97;;;2.10;;
45358;SDS011;31096;49.292;8.710;2023-05-16T22:28:26;4.82;;;1.63;;
45358;SDS011;31096;49.292;8.710;2023-05-16T22:33:16;5.70;;;2.50;;
45358;SDS011;31096;49.292;8.710;2023-05-16T22:38:07;4.70;;;2.07;;
45358;SDS011;31096;49.292;8.710;2023-05-16T22:42:58;6.22;;;2.20;;
45358;SDS011;31096;49.292;8.710;2023-05-16T22:47:48;5.73;;;2.47;;
45358;SDS011;31096;49.292;8.710;2023-05-16T22:52:39;6.22;;;2.08;;
45358;SDS011;31096;49.292;8.710;2023-05-16T22:57:30;6.30;;;2.47;;
45358;SDS011;31096;49.292;8.710;2023-05-16T23:02:21;7.00;;;2.20;;
45358;SDS011;31096;49.292;8.710;2023-05-16T23:07:12;4.30;;;2.20;;
45358;SDS011;31096;49.292;8.710;2023-05-16T23:12:02;6.70;;;2.13;;
45358;SDS011;31096;49.292;8.710;2023-05-16T23:16:53;4.10;;;2.10;;
45358;SDS011;31096;49.292;8.710;2023-05-16T23:21:44;4.70;;;2.10;;
45358;SDS011;31096;49.292;8.710;2023-05-16T23:26:35;4.10;;;1.90;;
45358;SDS011;31096;49.292;8.710;2023-05-16T23:31:25;5.82;;;2.40;;
45358;SDS011;31096;49.292;8.710;2023-05-16T23:36:16;5.90;;;2.00;;
45358;SDS011;31096;49.292;8.710;2023-05-16T23:41:07;4.60;;;1.87;;
45358;SDS011;31096;49.292;8.710;2023-05-16T23:45:57;7.43;;;1.95;;
45358;SDS011;31096;49.292;8.710;2023-05-16T23:50:48;4.30;;;2.10;;
45358;SDS011;31096;49.292;8.710;2023-05-16T23:55:39;5.07;;;2.30;;
